Springfield, CO

1:14 AM MDT on September 02, 2014 (GMT -0600)
Lamar Municipal | Change Station
CLOSE
Current Station
Airport
Location: Lamar,
Elevation: 3704 ft
Nearby Weather Stations

Elev 3704 ft 38.07 °N, 102.69 °W | Updated 21 minutes ago

Clear
Clear
62 °F
Feels Like 62 °F
N
5
Wind Variable Wind from NE

Today
High -- | Low -- °F
--% Chance of Precip.
Yesterday
High -- | Low -- °F
Precip. -- in
6:21 AM 7:17 PM
Waxing Crescent, 48% visible
Pressure 29.86 in
Visibility 9.0 miles
Clouds Clear
Dew Point 57 °F
Humidity 84%
Rainfall 0.00 in
Snow Depth Not available.
UV 0 out of 12
Pollen 10.00 out of 12
Air Quality Not available.
Flu Activity Not available.
METAR KLAA 020653Z AUTO 04004KT 9SM CLR 17/14 A3000 RMK AO2 SLP112 T01670139 403060106

More Conditions Fewer Conditions

Pressure 29.86 in
Visibility 9.0 miles
Clouds Clear
Dew Point 57 °F
Humidity 84%
Rainfall 0.00 in
Snow Depth Not available.
UV 0 out of 12
Pollen 10.00 out of 12
Air Quality Not available.
Flu Activity Not available.
METAR KLAA 020653Z AUTO 04004KT 9SM CLR 17/14 A3000 RMK AO2 SLP112 T01670139 403060106

More Conditions Fewer Conditions

10-Day Weather Forecast

Almanac

Astronomy

Sep. 02, 2014 Rise Set
Actual Time 6:21 AM MDT 7:17 PM MDT
Civil Twilight 5:55 AM MDT 7:44 PM MDT
Nautical Twilight 5:23 AM MDT 8:15 PM MDT
Astronomical Twilight 4:50 AM MDT 8:48 PM MDT
Moon 1:59 PM MDT No Moon Set
Length of Visible Light 13h 49m
Length of Day
12h 56m
Tomorrow will be 2m 19s shorter.
Waxing Crescent, 48% of the Moon is Illuminated
Today
Waxing Crescent
Sep 2
First Quarter
Sep 8
Full
Sep 15
Last Quarter
Sep 24
New

Today's Extremes

State Highs State Lows

Community

WunderPhotos

Upload Photos

1,749,589 photos uploaded!

WunderBlogs® & News

Nearby

Snow Depth

Station Depth Elevation
Apishapa 0 in 10000 ft
Culebra #2 0 in 10500 ft
Trinchera 0 in 10860 ft
Ute Creek 0 in 10650 ft
Medano Pass 0 in 9620 ft

Earthquake Activity

City Distance Mag. Time & Date
No recent earthquake activity has been reported nearby.
Minimum magnitude displayed is 2.5.

Coastal Water Temperatures

Place Temperature
No Stations Reporting

Nearby Weather Stations